Time;durP1;ratioP1;P1;durP2;ratioP2;P2;SDS_P1;SDS_P2;PMS_P1;PMS_P2;Temp;Humidity;BMP_temperature;BMP_pressure;BME280_temperature;BME280_humidity;BME280_pressure;Samples;Min_cycle;Max_cycle;Signal;HPM_P1;HPM_P2
2023/10/24 00:00:57;;;;;;;8.68;3.98;;;;;;;11.17;86.59;100208.95;1740775;82;21019;-71
2023/10/24 00:03:25;;;;;;;6.87;3.80;;;;;;;11.15;86.64;100204.20;1740480;82;21075;-72
2023/10/24 00:05:53;;;;;;;6.50;3.62;;;;;;;11.11;86.63;100207.88;1740501;82;21063;-71
2023/10/24 00:08:22;;;;;;;7.05;3.70;;;;;;;11.07;86.73;100207.97;1740587;82;21060;-70
2023/10/24 00:11:04;;;;;;;5.22;3.50;;;;;;;11.03;86.82;100206.66;1740749;82;21020;-70
2023/10/24 00:13:33;;;;;;;8.05;3.47;;;;;;;11.00;86.95;100208.44;1740543;81;21055;-72
2023/10/24 00:16:01;;;;;;;6.40;4.20;;;;;;;10.99;87.08;100212.23;1740791;81;21003;-71
2023/10/24 00:18:30;;;;;;;7.53;4.17;;;;;;;10.96;87.08;100224.98;1740531;82;21012;-72
2023/10/24 00:20:58;;;;;;;7.70;3.95;;;;;;;10.94;87.11;100220.23;1740588;82;21436;-71
2023/10/24 00:23:29;;;;;;;6.53;4.42;;;;;;;10.93;87.13;100223.17;1740736;82;21044;-71
2023/10/24 00:25:57;;;;;;;10.48;4.35;;;;;;;10.91;87.19;100220.63;1740760;82;21023;-72
2023/10/24 00:28:26;;;;;;;7.00;4.17;;;;;;;10.90;87.39;100223.58;1740571;82;21071;-71
2023/10/24 00:30:54;;;;;;;7.65;4.10;;;;;;;10.88;87.49;100217.45;1740738;81;21020;-72
2023/10/24 00:33:23;;;;;;;5.45;4.05;;;;;;;10.86;87.56;100220.41;1730359;82;21043;-72
2023/10/24 00:35:52;;;;;;;5.67;3.90;;;;;;;10.84;87.58;100215.65;1740845;82;21008;-70
2023/10/24 00:38:22;;;;;;;6.90;4.00;;;;;;;10.83;87.62;100222.18;1740788;82;21032;-72
2023/10/24 00:40:50;;;;;;;6.70;4.00;;;;;;;10.81;87.61;100221.54;1740531;82;21047;-70
2023/10/24 00:43:19;;;;;;;5.22;3.90;;;;;;;10.79;87.71;100224.48;1740727;82;21055;-72
2023/10/24 00:45:48;;;;;;;6.37;4.22;;;;;;;10.74;87.82;100231.09;1740775;82;21035;-71
2023/10/24 00:48:17;;;;;;;7.90;4.03;;;;;;;10.74;87.98;100235.20;1757175;80;21087;-72
2023/10/24 00:50:47;;;;;;;5.95;3.77;;;;;;;10.75;88.09;100233.31;1740679;82;20997;-70
2023/10/24 00:53:16;;;;;;;6.60;4.35;;;;;;;10.74;88.15;100235.73;1740765;82;21003;-71
2023/10/24 00:55:45;;;;;;;4.78;3.67;;;;;;;10.74;88.16;100230.25;1740560;81;20980;-72
2023/10/24 00:58:13;;;;;;;5.55;4.00;;;;;;;10.72;88.11;100239.20;1740748;81;21072;-70
2023/10/24 01:00:42;;;;;;;7.90;4.00;;;;;;;10.70;88.24;100234.45;1740503;82;21004;-71
2023/10/24 01:03:11;;;;;;;5.20;3.87;;;;;;;10.70;88.27;100237.19;1740655;81;21008;-71
2023/10/24 01:05:43;;;;;;;6.90;3.90;;;;;;;10.71;88.28;100239.72;1740538;82;21533;-71
2023/10/24 01:08:11;;;;;;;5.08;3.52;;;;;;;10.73;88.21;100234.05;1740546;82;20988;-71
2023/10/24 01:10:40;;;;;;;7.35;4.03;;;;;;;10.72;88.17;100233.72;1740529;82;21510;-70
2023/10/24 01:13:10;;;;;;;8.60;3.90;;;;;;;10.70;88.16;100235.81;1740709;82;20985;-71
2023/10/24 01:15:38;;;;;;;5.90;3.70;;;;;;;10.71;88.16;100242.47;1740647;81;20980;-72
2023/10/24 01:18:07;;;;;;;5.55;3.52;;;;;;;10.69;88.15;100241.82;1740679;82;20988;-71
2023/10/24 01:20:39;;;;;;;5.70;3.60;;;;;;;10.68;88.09;100238.77;1740501;81;21040;-71
2023/10/24 01:23:10;;;;;;;5.72;3.55;;;;;;;10.66;88.16;100239.48;1740608;81;21040;-71
2023/10/24 01:25:40;;;;;;;6.37;3.77;;;;;;;10.67;88.21;100241.70;1740581;82;21004;-69
2023/10/24 01:28:09;;;;;;;7.17;4.03;;;;;;;10.66;88.19;100243.59;1740533;82;21027;-71
2023/10/24 01:30:40;;;;;;;8.95;4.00;;;;;;;10.64;88.16;100241.58;1740563;82;20995;-70
2023/10/24 01:33:09;;;;;;;6.45;3.58;;;;;;;10.63;88.21;100239.89;1740687;82;21043;-71
2023/10/24 01:35:37;;;;;;;6.25;3.67;;;;;;;10.65;88.24;100240.53;1740482;81;21023;-71
2023/10/24 01:38:06;;;;;;;7.62;3.58;;;;;;;10.68;88.18;100245.61;1740846;82;21016;-71
2023/10/24 01:40:35;;;;;;;6.15;3.80;;;;;;;10.68;88.05;100245.61;1740442;82;21075;-70
2023/10/24 01:43:04;;;;;;;6.28;3.70;;;;;;;10.68;87.98;100237.91;1740700;81;21063;-70
2023/10/24 01:45:33;;;;;;;6.53;3.83;;;;;;;10.66;87.93;100235.91;1740641;82;21098;-70
2023/10/24 01:48:02;;;;;;;7.50;3.98;;;;;;;10.64;87.82;100240.73;1746163;80;21105;-71
2023/10/24 01:50:32;;;;;;;6.47;3.47;;;;;;;10.62;87.84;100241.46;1782700;80;21042;-71
2023/10/24 01:53:02;;;;;;;6.08;3.70;;;;;;;10.60;87.85;100246.30;1782772;80;21011;-71
2023/10/24 01:55:31;;;;;;;6.25;3.67;;;;;;;10.59;87.79;100248.72;1783022;80;20987;-71
2023/10/24 01:58:00;;;;;;;8.65;3.92;;;;;;;10.56;87.74;100243.64;1782952;80;21081;-70
2023/10/24 02:00:28;;;;;;;6.78;3.58;;;;;;;10.54;87.76;100245.21;1782855;80;21066;-71
2023/10/24 02:02:57;;;;;;;6.83;4.08;;;;;;;10.53;87.74;100244.89;1782935;80;21086;-71
2023/10/24 02:05:25;;;;;;;6.50;3.70;;;;;;;10.50;87.68;100245.81;1782715;80;21011;-71
2023/10/24 02:07:54;;;;;;;8.50;3.80;;;;;;;10.46;87.77;100251.70;1782933;80;21023;-70
2023/10/24 02:10:23;;;;;;;7.40;4.17;;;;;;;10.41;87.97;100245.97;1782755;80;21026;-71
2023/10/24 02:12:53;;;;;;;6.00;3.75;;;;;;;10.41;88.10;100251.45;1782947;80;20975;-70
2023/10/24 02:15:22;;;;;;;7.22;3.80;;;;;;;10.37;88.06;100250.13;1782939;80;21047;-71
2023/10/24 02:17:51;;;;;;;6.33;4.15;;;;;;;10.35;88.10;100249.48;1783007;80;21015;-70
2023/10/24 02:20:20;;;;;;;6.28;3.95;;;;;;;10.29;88.23;100257.66;1782929;80;21086;-71
2023/10/24 02:22:49;;;;;;;9.43;3.77;;;;;;;10.27;88.44;100263.84;1782648;80;21010;-70
2023/10/24 02:25:17;;;;;;;7.00;3.77;;;;;;;10.25;88.55;100257.72;1782663;80;21048;-69
2023/10/24 02:27:47;;;;;;;5.95;3.65;;;;;;;10.23;88.64;100263.40;1782972;80;20999;-70
2023/10/24 02:30:17;;;;;;;6.05;3.90;;;;;;;10.20;88.74;100256.08;1782856;80;21078;-70
2023/10/24 02:32:45;;;;;;;6.25;3.95;;;;;;;10.18;88.82;100259.86;1782966;80;21011;-71
2023/10/24 02:35:14;;;;;;;8.10;4.17;;;;;;;10.17;88.94;100265.01;1783035;80;21055;-72
2023/10/24 02:37:42;;;;;;;7.70;4.30;;;;;;;10.15;89.01;100261.63;1782996;80;20975;-70
2023/10/24 02:40:12;;;;;;;6.05;4.12;;;;;;;10.11;89.07;100264.95;1783002;80;21003;-72
2023/10/24 02:42:42;;;;;;;8.33;4.55;;;;;;;10.08;89.27;100259.36;1782773;80;21023;-72
2023/10/24 02:45:12;;;;;;;11.03;5.72;;;;;;;10.05;89.36;100262.48;1783083;80;21058;-70
2023/10/24 02:47:41;;;;;;;8.43;4.60;;;;;;;10.02;89.46;100261.52;1783034;80;20983;-70
2023/10/24 02:50:13;;;;;;;9.28;5.42;;;;;;;9.99;89.64;100261.06;1744906;80;21071;-70
2023/10/24 02:52:42;;;;;;;7.62;4.80;;;;;;;9.98;89.78;100269.80;1740548;82;20992;-71
2023/10/24 02:55:11;;;;;;;7.72;4.35;;;;;;;9.97;89.85;100263.15;1740567;82;21439;-71
2023/10/24 02:57:42;;;;;;;8.80;4.10;;;;;;;9.95;89.93;100262.50;1740792;82;21035;-71
2023/10/24 03:00:12;;;;;;;8.83;4.55;;;;;;;9.93;90.06;100262.70;1740720;82;21067;-72
2023/10/24 03:02:41;;;;;;;6.92;4.35;;;;;;;9.91;90.12;100264.78;1740744;82;20996;-71
2023/10/24 03:05:11;;;;;;;8.15;4.47;;;;;;;9.89;90.28;100252.34;1740598;82;21476;-71
2023/10/24 03:07:41;;;;;;;9.15;4.97;;;;;;;9.88;90.40;100253.39;1740610;82;21472;-71
2023/10/24 03:10:10;;;;;;;11.55;5.33;;;;;;;9.88;90.51;100257.48;1740746;82;21067;-71
2023/10/24 03:12:38;;;;;;;12.20;5.28;;;;;;;9.86;90.52;100265.90;1740690;82;21063;-69
2023/10/24 03:15:07;;;;;;;9.35;4.53;;;;;;;9.84;90.56;100261.98;1740721;82;21024;-72
2023/10/24 03:17:36;;;;;;;7.17;4.12;;;;;;;9.84;90.64;100263.87;1740748;82;21059;-71
2023/10/24 03:20:06;;;;;;;7.30;4.47;;;;;;;9.82;90.65;100268.18;1740330;82;21028;-70
2023/10/24 03:22:34;;;;;;;7.40;4.10;;;;;;;9.79;90.77;100276.78;1740416;82;21043;-70
2023/10/24 03:25:06;;;;;;;9.15;4.95;;;;;;;9.79;90.84;100277.30;1740575;81;21266;-70
2023/10/24 03:27:36;;;;;;;8.23;5.30;;;;;;;9.77;90.86;100274.77;1740610;81;21031;-71
2023/10/24 03:30:06;;;;;;;8.28;4.87;;;;;;;9.72;90.95;100270.89;1740689;82;21024;-72
2023/10/24 03:32:35;;;;;;;10.08;5.22;;;;;;;9.70;91.09;100266.98;1740510;82;21503;-71
2023/10/24 03:35:04;;;;;;;8.15;5.55;;;;;;;9.69;91.15;100271.28;1740708;82;21015;-71
2023/10/24 03:37:32;;;;;;;10.70;5.50;;;;;;;9.68;91.17;100266.84;1740729;82;21015;-71
2023/10/24 03:40:02;;;;;;;10.75;5.50;;;;;;;9.65;91.25;100269.45;1740611;82;21436;-71
2023/10/24 03:42:33;;;;;;;10.25;5.50;;;;;;;9.62;91.38;100273.10;1740533;82;21015;-70
2023/10/24 03:45:02;;;;;;;8.53;5.20;;;;;;;9.59;91.47;100277.59;1740556;82;21012;-71
2023/10/24 03:47:31;;;;;;;8.35;5.67;;;;;;;9.52;91.53;100270.69;1740691;81;21055;-71
2023/10/24 03:50:00;;;;;;;8.53;5.03;;;;;;;9.48;91.76;100281.69;1740491;80;21502;-71
2023/10/24 03:52:30;;;;;;;8.65;5.15;;;;;;;9.45;91.98;100280.19;1740346;82;21051;-73
2023/10/24 03:54:59;;;;;;;8.68;5.22;;;;;;;9.44;92.10;100280.38;1740534;82;21048;-71
2023/10/24 03:57:28;;;;;;;8.03;5.22;;;;;;;9.41;92.24;100275.30;1740733;82;21091;-71
2023/10/24 03:59:58;;;;;;;9.80;4.97;;;;;;;9.39;92.35;100278.74;1740686;82;21007;-70
2023/10/24 04:02:26;;;;;;;11.63;5.80;;;;;;;9.39;92.45;100280.11;1740817;82;21091;-71
2023/10/24 04:04:55;;;;;;;9.90;5.37;;;;;;;9.38;92.55;100276.53;1740527;81;21091;-71
2023/10/24 04:07:24;;;;;;;9.53;5.42;;;;;;;9.36;92.59;100273.66;1730266;82;21098;-71
2023/10/24 04:09:52;;;;;;;10.58;6.28;;;;;;;9.34;92.65;100270.27;1740434;81;21075;-71
2023/10/24 04:12:21;;;;;;;9.73;5.20;;;;;;;9.32;92.79;100271.83;1740532;82;20976;-71
2023/10/24 04:14:49;;;;;;;8.75;5.72;;;;;;;9.33;92.83;100273.53;1740496;81;21484;-71
2023/10/24 04:17:18;;;;;;;9.83;5.47;;;;;;;9.32;92.80;100281.92;1740651;82;21008;-71
2023/10/24 04:19:46;;;;;;;13.20;5.90;;;;;;;9.30;92.91;100282.63;1730155;82;20999;-70
2023/10/24 04:22:15;;;;;;;9.33;5.62;;;;;;;9.29;92.97;100278.20;1730124;82;21484;-70
2023/10/24 04:24:43;;;;;;;13.05;7.60;;;;;;;9.28;93.05;100275.99;1740776;82;21040;-71
2023/10/24 04:27:13;;;;;;;9.95;6.10;;;;;;;9.28;93.08;100281.46;1740499;82;21428;-71
2023/10/24 04:29:42;;;;;;;9.88;5.87;;;;;;;9.27;93.14;100274.30;1740662;82;21111;-71
2023/10/24 04:32:11;;;;;;;9.98;6.00;;;;;;;9.26;93.14;100281.33;1740716;81;21024;-71
2023/10/24 04:34:41;;;;;;;15.58;9.03;;;;;;;9.27;93.19;100282.50;1740587;82;21055;-70
2023/10/24 04:37:10;;;;;;;11.33;6.37;;;;;;;9.27;93.20;100293.95;1740885;81;21003;-71
2023/10/24 04:39:39;;;;;;;9.23;5.70;;;;;;;9.28;93.23;100297.02;1740736;81;20996;-71
2023/10/24 04:42:09;;;;;;;9.13;5.75;;;;;;;9.26;93.25;100300.46;1740526;81;21047;-70
2023/10/24 04:44:37;;;;;;;11.22;5.75;;;;;;;9.27;93.27;100298.91;1740743;82;21052;-72
2023/10/24 04:47:06;;;;;;;10.40;6.12;;;;;;;9.26;93.22;100295.84;1740666;82;21011;-70
2023/10/24 04:49:38;;;;;;;11.95;6.85;;;;;;;9.23;93.22;100303.06;1749111;80;21066;-70
2023/10/24 04:52:07;;;;;;;10.58;5.53;;;;;;;9.22;93.37;100298.63;1740754;81;21481;-72
2023/10/24 04:54:35;;;;;;;10.03;6.10;;;;;;;9.24;93.43;100301.17;1761446;80;21038;-71
2023/10/24 04:57:04;;;;;;;9.80;5.90;;;;;;;9.22;93.43;100301.36;1740686;81;21435;-72
2023/10/24 04:59:33;;;;;;;10.35;6.00;;;;;;;9.24;93.48;100301.17;1761517;81;21027;-72
2023/10/24 05:02:03;;;;;;;11.88;6.60;;;;;;;9.24;93.52;100302.55;1761755;81;21450;-72
2023/10/24 05:04:32;;;;;;;9.20;5.60;;;;;;;9.24;93.51;100308.01;1761624;81;21026;-69
2023/10/24 05:07:01;;;;;;;12.82;6.75;;;;;;;9.22;93.55;100308.20;1761641;81;21097;-70
2023/10/24 05:09:30;;;;;;;11.00;6.58;;;;;;;9.21;93.54;100312.81;1761749;81;21062;-71
2023/10/24 05:11:59;;;;;;;12.13;7.72;;;;;;;9.21;93.50;100316.07;1761782;81;21003;-72
2023/10/24 05:14:28;;;;;;;10.60;6.55;;;;;;;9.18;93.46;100316.45;1761389;81;21030;-73
2023/10/24 05:16:57;;;;;;;12.03;6.40;;;;;;;9.15;93.61;100316.31;1761651;81;21015;-71
2023/10/24 05:19:26;;;;;;;11.43;6.47;;;;;;;9.12;93.68;100322.69;1740494;81;21038;-71
2023/10/24 05:21:55;;;;;;;12.50;6.60;;;;;;;9.11;93.85;100331.92;1740991;81;21062;-72
2023/10/24 05:24:23;;;;;;;12.47;6.97;;;;;;;9.12;94.04;100328.15;1761489;81;21039;-71
2023/10/24 05:26:52;;;;;;;11.97;6.53;;;;;;;9.14;94.14;100333.76;1761468;81;21019;-72
2023/10/24 05:29:21;;;;;;;11.12;6.42;;;;;;;9.18;94.22;100332.34;1761839;81;21034;-71
2023/10/24 05:31:50;;;;;;;14.47;7.20;;;;;;;9.23;94.21;100332.28;1761733;81;21084;-71
2023/10/24 05:34:19;;;;;;;15.65;7.40;;;;;;;9.26;94.17;100334.64;1761595;81;21054;-72
2023/10/24 05:36:48;;;;;;;19.37;8.40;;;;;;;9.27;94.15;100345.37;1706752;81;21512;-72
2023/10/24 05:39:17;;;;;;;13.45;7.25;;;;;;;9.29;94.07;100344.67;1761463;81;21086;-73
2023/10/24 05:41:49;;;;;;;11.15;7.85;;;;;;;9.34;94.08;100344.09;1740625;81;21581;-72
2023/10/24 05:44:17;;;;;;;14.93;7.40;;;;;;;9.38;93.98;100337.20;1761412;81;21019;-71
2023/10/24 05:46:46;;;;;;;14.45;7.42;;;;;;;9.42;93.90;100346.72;1740913;81;21027;-72
2023/10/24 05:49:15;;;;;;;12.98;6.60;;;;;;;9.44;93.77;100350.96;1737762;80;21166;-71
2023/10/24 05:51:44;;;;;;;12.78;7.05;;;;;;;9.46;93.66;100353.50;1730121;82;21525;-70
2023/10/24 05:54:13;;;;;;;11.80;6.53;;;;;;;9.45;93.54;100343.61;1740535;82;21095;-72
2023/10/24 05:56:43;;;;;;;12.65;7.00;;;;;;;9.45;93.57;100346.34;1740566;82;21071;-72
2023/10/24 05:59:12;;;;;;;17.23;6.97;;;;;;;9.45;93.60;100356.77;1740488;81;21048;-72
2023/10/24 06:01:43;;;;;;;16.97;7.08;;;;;;;9.48;93.54;100351.42;1740637;82;21012;-71
2023/10/24 06:04:11;;;;;;;13.05;6.87;;;;;;;9.49;93.56;100345.77;1740824;82;21048;-72
2023/10/24 06:06:39;;;;;;;14.23;6.95;;;;;;;9.52;93.49;100352.73;1740699;82;21044;-72
2023/10/24 06:09:12;;;;;;;11.30;7.15;;;;;;;9.52;93.45;100341.27;1730576;82;21047;-73
2023/10/24 06:11:39;;;;;;;11.22;7.12;;;;;;;9.55;93.45;100344.14;1740912;82;21040;-72
2023/10/24 06:14:08;;;;;;;14.80;7.50;;;;;;;9.58;93.39;100346.50;1740738;82;21024;-72
2023/10/24 06:16:38;;;;;;;13.45;7.90;;;;;;;9.62;93.35;100343.70;1730347;82;21031;-70
2023/10/24 06:19:07;;;;;;;14.18;6.95;;;;;;;9.65;93.31;100351.52;1730429;82;21082;-70
2023/10/24 06:21:36;;;;;;;13.62;6.65;;;;;;;9.69;93.28;100350.09;1730600;82;21071;-73
2023/10/24 06:24:05;;;;;;;13.03;7.30;;;;;;;9.72;93.24;100341.50;1730374;82;21071;-73
2023/10/24 06:26:34;;;;;;;24.82;9.78;;;;;;;9.76;93.17;100344.73;1740733;82;21011;-73
2023/10/24 06:29:04;;;;;;;12.25;7.37;;;;;;;9.81;93.07;100355.94;1740754;82;21011;-72
2023/10/24 06:31:33;;;;;;;15.20;7.87;;;;;;;9.85;92.85;100359.46;1740805;81;21447;-72
2023/10/24 06:34:04;;;;;;;11.97;6.35;;;;;;;9.87;92.53;100353.80;1740704;82;21031;-71
2023/10/24 06:36:34;;;;;;;14.28;7.15;;;;;;;9.90;92.29;100358.03;1740581;82;21043;-74
2023/10/24 06:39:04;;;;;;;13.83;7.47;;;;;;;9.93;91.92;100357.12;1740481;82;20992;-70
2023/10/24 06:41:33;;;;;;;14.07;7.37;;;;;;;9.98;91.62;100359.28;1740893;82;21055;-71
2023/10/24 06:44:02;;;;;;;12.43;6.90;;;;;;;10.01;91.37;100353.41;1740855;82;21056;-72
2023/10/24 06:46:31;;;;;;;17.52;9.48;;;;;;;10.06;91.14;100350.94;1740515;81;21032;-72
2023/10/24 06:49:00;;;;;;;17.07;8.13;;;;;;;10.10;90.77;100354.97;1740823;81;21073;-72
2023/10/24 06:51:29;;;;;;;14.30;7.22;;;;;;;10.13;90.42;100350.48;1740497;80;21083;-73
2023/10/24 06:54:00;;;;;;;13.93;7.42;;;;;;;10.16;90.02;100350.08;1740757;81;21008;-72
2023/10/24 06:56:29;;;;;;;10.40;7.05;;;;;;;10.19;89.68;100353.80;1740710;81;21060;-72
2023/10/24 06:58:59;;;;;;;12.58;7.53;;;;;;;10.23;89.33;100358.39;1730557;82;21019;-72
2023/10/24 07:01:28;;;;;;;11.70;6.75;;;;;;;10.26;88.94;100342.41;1730223;82;21035;-70
2023/10/24 07:03:58;;;;;;;14.78;7.30;;;;;;;10.30;88.52;100343.72;1740716;82;21008;-72
2023/10/24 07:06:27;;;;;;;12.63;6.47;;;;;;;10.34;88.19;100344.16;1740606;82;21059;-77
2023/10/24 07:08:56;;;;;;;10.55;6.47;;;;;;;10.39;87.78;100351.27;1740652;82;21076;-71
2023/10/24 07:11:25;;;;;;;13.30;6.95;;;;;;;10.43;87.56;100358.08;1740464;82;21020;-72
2023/10/24 07:13:53;;;;;;;10.45;6.20;;;;;;;10.48;87.44;100359.17;1740602;82;21027;-70
2023/10/24 07:16:23;;;;;;;22.25;12.18;;;;;;;10.54;87.20;100364.38;1730327;82;21020;-71
2023/10/24 07:18:51;;;;;;;11.85;7.08;;;;;;;10.60;86.93;100365.48;1740584;82;21059;-70
2023/10/24 07:21:20;;;;;;;14.38;7.40;;;;;;;10.67;86.70;100366.37;1740740;81;21047;-70
2023/10/24 07:23:50;;;;;;;15.38;7.15;;;;;;;10.74;86.57;100372.23;1740653;82;21051;-71
2023/10/24 07:26:19;;;;;;;16.87;8.08;;;;;;;10.83;86.38;100373.45;1730421;82;20999;-72
2023/10/24 07:28:48;;;;;;;19.70;11.10;;;;;;;10.89;86.13;100366.64;1730212;82;21083;-71
2023/10/24 07:31:18;;;;;;;16.97;8.98;;;;;;;10.97;85.85;100376.08;1730242;82;21004;-71
2023/10/24 07:33:47;;;;;;;13.05;7.70;;;;;;;11.08;85.80;100371.44;1740690;81;21064;-70
2023/10/24 07:36:16;;;;;;;16.37;8.18;;;;;;;11.31;85.06;100367.02;1740706;82;21047;-70
2023/10/24 07:38:45;;;;;;;14.80;7.10;;;;;;;11.65;84.57;100367.48;1740796;81;21055;-69
2023/10/24 07:41:13;;;;;;;16.23;7.60;;;;;;;12.14;83.82;100375.17;1740645;82;21059;-71
2023/10/24 07:43:42;;;;;;;16.07;7.67;;;;;;;12.66;82.21;100366.16;1740664;82;21186;-69
2023/10/24 07:46:13;;;;;;;14.13;7.17;;;;;;;13.17;80.29;100380.10;1740642;82;21056;-70
2023/10/24 07:48:41;;;;;;;11.50;6.50;;;;;;;13.60;77.33;100376.26;1730353;82;21091;-71
2023/10/24 07:51:12;;;;;;;12.82;6.55;;;;;;;14.05;75.23;100378.19;1740557;80;21067;-70
2023/10/24 07:53:41;;;;;;;12.98;6.72;;;;;;;14.42;72.55;100375.10;1718764;82;21067;-69
2023/10/24 07:56:09;;;;;;;17.20;7.00;;;;;;;14.71;69.28;100373.09;1723482;82;21050;-73
2023/10/24 07:58:38;;;;;;;16.62;6.42;;;;;;;14.92;68.73;100375.97;1712296;83;21075;-72
2023/10/24 08:01:08;;;;;;;11.95;6.65;;;;;;;15.19;67.87;100370.53;1733279;82;21029;-70
2023/10/24 08:03:39;;;;;;;11.55;6.70;;;;;;;15.44;66.56;100369.08;1734912;83;21074;-75
2023/10/24 08:06:07;;;;;;;12.88;6.75;;;;;;;15.63;65.52;100371.36;1740964;81;21062;-77
2023/10/24 08:08:36;;;;;;;13.45;6.25;;;;;;;15.77;64.89;100365.97;1712267;82;21034;-78
2023/10/24 08:11:04;;;;;;;11.25;6.50;;;;;;;15.91;63.80;100369.39;1694185;83;21095;-72
2023/10/24 08:13:33;;;;;;;10.25;5.70;;;;;;;15.87;61.57;100365.41;1726319;83;21009;-77
2023/10/24 08:16:01;;;;;;;8.90;5.78;;;;;;;15.81;61.54;100367.73;1708457;83;21035;-77
2023/10/24 08:18:30;;;;;;;7.33;5.35;;;;;;;15.73;61.18;100367.50;1726678;83;21072;-75
2023/10/24 08:20:58;;;;;;;11.38;5.58;;;;;;;15.68;61.41;100367.90;1683568;83;21065;-77
2023/10/24 08:23:28;;;;;;;8.75;5.40;;;;;;;15.69;61.34;100376.48;1726546;83;21515;-76
2023/10/24 08:25:56;;;;;;;8.38;4.97;;;;;;;15.64;61.07;100374.42;1726671;82;21060;-76
2023/10/24 08:28:25;;;;;;;7.03;4.42;;;;;;;15.55;61.00;100380.73;1712060;83;21046;-76
2023/10/24 08:30:53;;;;;;;6.75;4.70;;;;;;;15.47;60.97;100382.42;1727383;83;21018;-78
2023/10/24 08:33:22;;;;;;;9.20;5.00;;;;;;;15.35;60.91;100371.00;1680954;85;21106;-76
2023/10/24 08:35:51;;;;;;;10.03;4.75;;;;;;;15.27;61.03;100382.34;1728013;82;21058;-75
2023/10/24 08:38:22;;;;;;;9.05;4.60;;;;;;;15.18;61.46;100384.56;1728370;83;21046;-77
2023/10/24 08:40:50;;;;;;;7.60;4.78;;;;;;;15.09;61.11;100383.16;1681054;84;21034;-75
2023/10/24 08:43:20;;;;;;;8.05;4.90;;;;;;;14.93;61.25;100380.95;1727994;83;21047;-76
2023/10/24 08:45:49;;;;;;;8.13;4.90;;;;;;;14.82;61.91;100376.48;1681011;85;21205;-75
2023/10/24 08:48:18;;;;;;;8.78;4.72;;;;;;;14.80;62.00;100380.55;1727873;83;21046;-77
2023/10/24 08:50:47;;;;;;;7.65;4.53;;;;;;;14.76;62.16;100383.45;1697515;83;21507;-77
2023/10/24 08:53:15;;;;;;;5.85;4.12;;;;;;;14.68;61.92;100385.95;1777839;81;21012;-74
2023/10/24 08:55:57;;;;;;;8.10;4.55;;;;;;;14.54;61.96;100375.56;1777992;81;21044;-76
2023/10/24 08:58:21;;;;;;;8.70;4.62;;;;;;;14.45;62.52;100370.02;1777346;81;21076;-77
2023/10/24 09:00:50;;;;;;;7.30;4.00;;;;;;;14.44;63.00;100370.24;1777867;81;21028;-78
2023/10/24 09:03:19;;;;;;;6.03;3.70;;;;;;;14.44;62.50;100370.24;1759561;81;21034;-75
2023/10/24 09:05:48;;;;;;;7.60;4.20;;;;;;;14.39;62.27;100372.80;1750501;82;21046;-76
2023/10/24 09:08:17;;;;;;;7.53;3.70;;;;;;;14.33;62.20;100368.17;1750423;82;21038;-74
2023/10/24 09:10:47;;;;;;;7.15;3.62;;;;;;;14.24;61.67;100367.03;1729775;82;21094;-74
2023/10/24 09:13:15;;;;;;;5.22;3.22;;;;;;;14.12;61.54;100377.61;1750354;82;21138;-75
2023/10/24 09:15:43;;;;;;;5.80;3.62;;;;;;;14.06;61.94;100382.09;1750451;82;21003;-75
2023/10/24 09:18:12;;;;;;;7.70;3.15;;;;;;;14.03;62.29;100384.45;1729661;82;21555;-75
2023/10/24 09:20:40;;;;;;;7.85;4.03;;;;;;;14.04;62.31;100377.34;1750482;82;21501;-76
2023/10/24 09:23:11;;;;;;;3.87;3.08;;;;;;;14.04;62.30;100374.58;1750295;82;22154;-76
2023/10/24 09:25:40;;;;;;;5.15;3.10;;;;;;;14.06;62.52;100371.61;1750368;82;21022;-76
2023/10/24 09:28:16;;;;;;;5.75;3.52;;;;;;;14.13;62.74;100369.66;1750348;82;21048;-75
2023/10/24 09:30:45;;;;;;;5.72;3.30;;;;;;;14.20;62.78;100372.67;1750632;82;21027;-75
2023/10/24 09:33:14;;;;;;;6.33;3.27;;;;;;;14.28;62.56;100375.70;1750145;82;21062;-74
2023/10/24 09:35:42;;;;;;;5.45;3.20;;;;;;;14.32;61.82;100370.09;1750269;82;21450;-77
2023/10/24 09:38:14;;;;;;;10.78;3.50;;;;;;;14.32;61.74;100363.73;1750566;82;21059;-76
2023/10/24 09:40:44;;;;;;;4.85;3.25;;;;;;;14.32;61.93;100356.84;1749989;82;21003;-76
2023/10/24 09:43:23;;;;;;;8.18;2.77;;;;;;;14.32;61.41;100352.70;1729031;82;21158;-77
2023/10/24 09:45:52;;;;;;;4.00;2.80;;;;;;;14.37;61.48;100355.63;1750365;82;21491;-77
2023/10/24 09:48:22;;;;;;;5.50;3.15;;;;;;;14.39;61.49;100352.12;1750414;82;21046;-76
2023/10/24 09:50:53;;;;;;;5.55;2.90;;;;;;;14.40;61.29;100356.03;1744266;82;21070;-78
2023/10/24 09:53:22;;;;;;;6.78;3.20;;;;;;;14.35;60.68;100346.74;1731191;82;21032;-74
2023/10/24 09:55:50;;;;;;;9.73;3.40;;;;;;;14.30;60.79;100343.25;1731329;83;21475;-77
2023/10/24 09:58:19;;;;;;;7.75;3.00;;;;;;;14.25;60.83;100334.27;1731381;83;21487;-76
2023/10/24 10:00:48;;;;;;;3.92;2.60;;;;;;;14.21;60.57;100345.43;1731270;83;21055;-75
2023/10/24 10:03:16;;;;;;;6.17;3.05;;;;;;;14.21;60.38;100327.52;1730941;83;21007;-77
2023/10/24 10:05:45;;;;;;;3.95;2.70;;;;;;;14.21;60.43;100328.89;1732875;83;21031;-77
2023/10/24 10:08:16;;;;;;;5.30;3.00;;;;;;;14.24;60.27;100333.95;1732930;83;21102;-76
2023/10/24 10:10:45;;;;;;;4.92;3.20;;;;;;;14.27;60.12;100329.91;1675640;84;21058;-77
2023/10/24 10:13:16;;;;;;;6.37;2.80;;;;;;;14.31;60.16;100328.43;1732796;83;21018;-76
2023/10/24 10:15:52;;;;;;;4.95;2.95;;;;;;;14.38;59.69;100327.00;1675388;86;21035;-75
2023/10/24 10:18:59;;;;;;;4.62;2.80;;;;;;;14.45;58.90;100331.42;1733090;83;21049;-76
2023/10/24 10:22:20;;;;;;;4.58;2.70;;;;;;;14.53;58.28;100331.67;1710951;82;21054;-78
2023/10/24 10:25:12;;;;;;;5.37;2.60;;;;;;;14.60;57.60;100328.33;1732625;81;21050;-79
2023/10/24 10:27:55;;;;;;;6.83;2.40;;;;;;;14.58;57.32;100331.30;1733151;81;21077;-78
2023/10/24 10:30:47;;;;;;;5.75;2.45;;;;;;;14.54;57.34;100327.31;1675661;86;21054;-76
2023/10/24 10:33:21;;;;;;;4.28;2.67;;;;;;;14.54;56.40;100326.47;1730080;81;21564;-78
2023/10/24 10:36:02;;;;;;;4.15;2.60;;;;;;;14.54;56.64;100320.95;1732974;81;21078;-76
2023/10/24 10:38:49;;;;;;;4.33;2.50;;;;;;;14.51;57.15;100314.52;1675573;86;21043;-76
2023/10/24 10:41:28;;;;;;;5.42;2.90;;;;;;;14.52;57.16;100318.95;1732262;81;21035;-75
2023/10/24 10:44:05;;;;;;;4.47;2.50;;;;;;;14.52;57.25;100323.09;1675473;86;21062;-76
2023/10/24 10:46:34;;;;;;;3.58;2.30;;;;;;;14.49;56.88;100307.84;1733123;82;21973;-76
2023/10/24 10:49:04;;;;;;;8.38;3.70;;;;;;;14.52;56.74;100307.92;1714621;83;21034;-77
2023/10/24 10:51:36;;;;;;;4.95;2.98;;;;;;;14.56;57.22;100306.41;1749882;81;21076;-76
2023/10/24 10:54:21;;;;;;;4.80;2.90;;;;;;;14.59;57.29;100305.95;1750984;80;21021;-75
2023/10/24 10:56:49;;;;;;;3.75;2.70;;;;;;;14.58;57.41;100306.48;1770174;81;21028;-76
2023/10/24 10:59:40;;;;;;;4.80;2.50;;;;;;;14.59;56.35;100303.20;1770150;81;21074;-75
2023/10/24 11:02:40;;;;;;;6.90;3.25;;;;;;;14.57;55.96;100308.09;1763217;81;21039;-74
2023/10/24 11:05:37;;;;;;;4.28;2.65;;;;;;;14.58;56.25;100305.11;1692366;85;21071;-76
2023/10/24 11:08:12;;;;;;;3.80;2.50;;;;;;;14.60;55.54;100292.48;1691609;84;21449;-76
2023/10/24 11:11:00;;;;;;;6.17;2.35;;;;;;;14.59;55.05;100288.88;1727280;83;21065;-76
2023/10/24 11:13:32;;;;;;;4.20;2.33;;;;;;;14.61;54.36;100292.78;1692423;85;21444;-75
2023/10/24 11:16:02;;;;;;;6.12;2.80;;;;;;;14.59;53.69;100275.63;1727613;83;21066;-76
2023/10/24 11:18:32;;;;;;;6.62;2.92;;;;;;;14.58;53.99;100278.92;1665736;85;21048;-77
2023/10/24 11:21:02;;;;;;;4.20;2.37;;;;;;;14.60;53.88;100288.34;1726738;83;21050;-73
2023/10/24 11:23:32;;;;;;;5.28;2.65;;;;;;;14.63;53.86;100277.39;1692326;85;21032;-72
2023/10/24 11:26:00;;;;;;;7.78;2.72;;;;;;;14.62;54.07;100276.55;1727891;83;21003;-71
2023/10/24 11:28:29;;;;;;;4.80;2.55;;;;;;;14.60;53.74;100267.66;1692423;84;21452;-71
2023/10/24 11:30:58;;;;;;;4.92;2.40;;;;;;;14.56;53.79;100261.75;1727548;83;21089;-72
2023/10/24 11:33:26;;;;;;;3.30;2.17;;;;;;;14.54;53.77;100261.14;1692229;85;21036;-71
2023/10/24 11:35:55;;;;;;;3.77;2.45;;;;;;;14.51;53.72;100267.64;1727560;83;21160;-71
2023/10/24 11:38:23;;;;;;;4.47;2.30;;;;;;;14.48;52.88;100259.83;1692334;85;21051;-71